This is the latest recevied weather packets stored in our database for station/object WD7CGF. If no packets are shown the sender has not sent any weather packets the latest 10 day(s).
| Time | Temp. | Humidity | Pressure | Rain* | Wind** | Luminosity | Snow |
|---|---|---|---|---|---|---|---|
| 1787763530 | 22.78° C | 63% | 1013.9 hPa | 0 mm | - | - | - |
| 1787762923 | 22.22° C | 65% | 1013.9 hPa | 0 mm | - | - | - |
| 1787762321 | 21.67° C | 64% | 1013.2 hPa | 0 mm | - | - | - |
| 1787761715 | 21.11° C | 67% | 1013.3 hPa | 0 mm | - | - | - |
| 1787761113 | 20.56° C | 68% | 1013.3 hPa | 0 mm | - | - | - |
| 1787760526 | 20° C | 70% | 1013.6 hPa | 0 mm | - | - | - |
| 1787759919 | 19.44° C | 70% | 1013.7 hPa | 0 mm | - | - | - |
| 1787759312 | 19.44° C | 70% | 1013.7 hPa | 0 mm | - | - | - |
| 1787758729 | 18.89° C | 71% | 1013.9 hPa | 0 mm | - | - | - |
| 1787758121 | 18.33° C | 73% | 1014.1 hPa | 0 mm | - | - | - |
| 1787757520 | 17.78° C | 75% | 1014.1 hPa | 0 mm | - | - | - |
| 1787756917 | 16.67° C | 78% | 1014.1 hPa | 0 mm | - | - | - |
| 1787756330 | 16.11° C | 80% | 1014.4 hPa | 0 mm | - | - | - |
| 1787755723 | 15.56° C | 82% | 1014.4 hPa | 0 mm | - | - | - |
| 1787755117 | 14.44° C | 85% | 1014.4 hPa | 0 mm | - | - | - |
| 1787754511 | 13.89° C | 86% | 1014.5 hPa | 0 mm | - | - | - |
| 1787753923 | 13.33° C | 86% | 1014.5 hPa | 0 mm | - | - | - |
| 1787753320 | 12.78° C | 87% | 1014.1 hPa | 0 mm | - | - | - |
| 1787752713 | 12.78° C | 87% | 1014.1 hPa | 0 mm | - | - | - |
| 1787752130 | 12.78° C | 87% | 1014.1 hPa | 0 mm | - | - | - |
| 1787751524 | 12.22° C | 87% | 1014.1 hPa | 0 mm | - | - | - |
| 1787750917 | 12.22° C | 85% | 1014 hPa | 0 mm | - | - | - |
| 1787750315 | 12.78° C | 84% | 1014 hPa | 0 mm | - | - | - |
| 1787749727 | 12.78° C | 82% | 1013.7 hPa | 0 mm | - | - | - |
| 1787749121 | 12.78° C | 82% | 1013.7 hPa | 0 mm | - | - | - |
* Rain latest hour (hover to see other rain measurements)
** Current wind speed in m/s (hover to see current wind gust speed)